Tiempo atmosférico en la estación meteorológica de Alfaro, La Rioja (285 m.)



Fecha
DESCASC
Temp. máxima en grados centígrados (hora)
DESCASC
Temp. mínima en grados centígrados (hora)
DESCASC
Temp. media en grados centígrados
DESCASC
Racha de viento máxima en m/sg (hora)
DESCASC
Velocidad máxima media en intervalos de 10 minutos(hora)
DESCASC
Precipitaciones diarias en mm
DESCASC
Precipitaciones de 00:00 a 06:00 en mm
DESCASC
Precipitaciones de 06:00 a 12:00 en mm
DESCASC
Precipitaciones de 12:00 a 18:00 en mm
DESCASC
Precipitaciones de 18:00 a 24:00 en mm
DESCASC
17-02-2019 18 (16:00) -3.6 (07:50) 7.2 10.56 (13:30) 8.06 (13:30) 0 0 0 0 0
16-02-2019 16.5 (16:00) -4.2 (08:10) 6.2 11.39 (17:10) 8.06 (15:10) 0 0 0 0 0
15-02-2019 14.4 (16:30) -3.5 (08:10) 5.4 5 (15:50) 2.78 (12:30) 0 0 0 0 0
14-02-2019 14.8 (15:40) -0.8 (-00:0) 7 8.89 (16:10) 6.39 (17:10) 0 0 0 0 0
13-02-2019 15.6 (16:20) -3.8 (-00:0) 5.9 6.94 (15:00) 4.72 (16:50) 0.2 0 0.2 0 0
12-02-2019 14.1 (17:10) -0.4 (00:00) 6.9 7.5 (00:20) 4.72 (00:10) 0 0 0 0 0
11-02-2019 12.5 (14:20) 4 (00:00) 8.3 11.67 (11:10) 7.22 (12:50) 0 0 0 0 0
10-02-2019 15.3 (14:00) 5.4 (00:00) 10.4 10 (15:50) 6.39 (15:50) 0 0 0 0 0
09-02-2019 16 (16:30) -1.1 (-00:0) 7.4 8.33 (22:00) 5.83 (22:00) 0 0 0 0 0
08-02-2019 14 (17:00) -2 (-00:0) 6 4.17 (23:10) 2.78 (21:40) 0.4 0 0.4 0 0
07-02-2019 15 (14:50) 0.1 (00:00) 7.6 8.89 (16:10) 5.28 (16:20) 0 0 0 0 0
06-02-2019 17.1 (16:30) 1.9 (00:00) 9.5 5 (02:10) 3.61 (02:10) 0 0 0 0 0
05-02-2019 15.8 (16:00) 3.7 (00:00) 9.8 9.17 (14:10) 6.11 (14:40) 0 0 0 0 0
04-02-2019 12.2 (14:50) 0.1 (00:00) 6.1 11.67 (14:50) 8.06 (14:50) 0 0 0 0 0
03-02-2019 7.8 (15:40) 0.5 (00:00) 4.2 14.72 (14:50) 9.72 (14:30) 1.8 1 0.8 0 0
02-02-2019 8.1 (15:40) 1.1 (00:00) 4.6 21.39 (09:30) 13.61 (11:50) 11.4 0 3.8 3.2 4.4
01-02-2019 14.7 (14:50) 2.6 (00:00) 8.6 18.33 (15:20) 13.33 (16:20) 1.6 1.6 0 0 0
31-01-2019 13.4 (21:20) 4.5 (00:00) 8.9 12.5 (21:10) 8.61 (21:20) 3.4 1.6 1.8 0 0
30-01-2019 11.4 (13:50) 2.2 (00:00) 6.8 11.11 (00:30) 6.39 (00:30) 1 0 0.2 0 0.8
29-01-2019 9.8 (14:30) 4.2 (00:00) 7 11.39 (22:00) 7.78 (00:30) 1.2 0 0 1.2 0
28-01-2019 11.7 (14:40) 1.8 (00:00) 6.7 20 (14:50) 11.39 (14:50) 0.4 0 0 0.2 0.2
27-01-2019 12.2 (13:20) -0.8 (-00:0) 5.7 19.17 (13:30) 11.39 (13:30) 0 0 0 0 0
26-01-2019 13.9 (15:30) 2.2 (00:00) 8 10.83 (02:30) 6.67 (02:30) 0 0 0 0 0
25-01-2019 14.2 (13:30) 4.1 (00:00) 9.1 16.67 (10:40) 11.67 (13:50) 0.2 0 0 0.2 0
24-01-2019 6.8 (00:00) 3.7 (00:00) 5.3 12.78 (01:30) 8.33 (01:30) 2 0.6 1 0.4 0
23-01-2019 10.7 (13:30) 3.8 (00:00) 7.2 19.17 (08:50) 12.78 (10:10) 0.4 0 0.2 0 0.2
22-01-2019 8.1 (15:20) 1 (00:00) 4.6 15.28 (16:30) 8.89 (16:20) 0 0 0 0 0
21-01-2019 9.7 (15:00) 3.3 (00:00) 6.5 13.61 (12:40) 8.89 (11:50) 0 0 0 0 0
20-01-2019 10.2 (13:50) 3.8 (00:00) 7 11.94 (15:30) 7.22 (12:00) 2.4 2 0.2 0.2 0
19-01-2019 11.7 (15:00) -3.7 (-00:0) 4 10.83 (20:00) 7.78 (20:00) 3.4 0 0 0.2 3.2

Gráficas

Temp. máximas Temp. mínimas Temp. medias Precipitaciones Rachas de viento máximas Velocidades máximas media en intervalos de 10 minutos

Datos horarios

Fecha y hora oficial Temperatura (ºC) Velocidad del viento (km/h) Dirección del viento Racha (km/h) Dirección de racha Precipitación (mm) Presión (hPa) Tendencia (hPa) Humedad (%)
2019-02-17 23:00:00 1.8 6 Sudeste 10 Sudeste 0 -- -- 71
2019-02-17 22:00:00 2.9 3 Sudoeste 6 Este 0 -- -- 65
2019-02-17 21:00:00 6.8 3 Norte 18 Sudeste 0 -- -- 50
2019-02-17 20:00:00 8.8 12 Sudeste 21 Sudeste 0 -- -- 42
2019-02-17 19:00:00 11.1 13 Sur 22 Sudeste 0 -- -- 37
2019-02-17 18:00:00 15 16 Sudeste 31 Sudeste 0 -- -- 30
2019-02-17 17:00:00 17.2 19 Sudeste 32 Sudeste 0 -- -- 25
2019-02-17 16:00:00 18 21 Sudeste 33 Sudeste 0 -- -- 22
2019-02-17 15:00:00 17.6 22 Sudeste 33 Sudeste 0 -- -- 24
2019-02-17 14:00:00 16.1 23 Sudeste 38 Sudeste 0 -- -- 27
2019-02-17 13:00:00 14.8 24 Sudeste 33 Sudeste 0 -- -- 26
2019-02-17 12:00:00 13.3 20 Sudeste 28 Sudeste 0 -- -- 32
2019-02-17 11:00:00 10.4 20 Sudeste 30 Sudeste 0 -- -- 38
2019-02-17 10:00:00 5 2 Nordeste 4 Nordeste 0 -- -- 67
2019-02-17 09:00:00 -1.1 0 Calma 6 Sudeste 0 -- -- 93
2019-02-17 08:00:00 -3.6 4 Sur 6 Sur 0 -- -- 92
2019-02-17 07:00:00 -2.8 0 Calma 10 Sur 0 -- -- 90
2019-02-17 06:00:00 -2.3 5 Sudoeste 9 Sudoeste 0 -- -- 88
2019-02-17 05:00:00 -2.4 3 Oeste 7 Sur 0 -- -- 91
2019-02-17 04:00:00 -2 0 Calma 6 Sudoeste 0 -- -- 86
2019-02-17 03:00:00 -0.2 3 Sur 10 Sur 0 -- -- 78
2019-02-17 02:00:00 1.1 8 Sudoeste 10 Sur 0 -- -- 75
2019-02-17 01:00:00 3.3 5 Sur 15 Sur 0 -- -- 68
2019-02-17 00:00:00 2.6 3 Sur 9 Sur 0 -- -- 71
2019-02-16 23:00:00 3.3 6 Sur 13 Sur 0 -- -- 73
2019-02-16 22:00:00 3.7 6 Sur 10 Sur 0 -- -- 71
2019-02-16 21:00:00 6.3 10 Sudeste 15 Sur 0 -- -- 67
2019-02-16 20:00:00 6.9 11 Sudeste 14 Sudeste 0 -- -- 61
2019-02-16 19:00:00 10.3 9 Sur 26 Sur 0 -- -- 49
2019-02-16 18:00:00 13.9 19 Sudeste 41 Sudeste 0 -- -- 38
2019-02-16 17:00:00 15.6 24 Sudeste 40 Sudeste 0 -- -- 33
2019-02-16 16:00:00 16.5 26 Sudeste 39 Sudeste 0 -- -- 36
2019-02-16 15:00:00 16.2 22 Sudeste 35 Sudeste 0 -- -- 42
2019-02-16 14:00:00 14.9 21 Sudeste 30 Sudeste 0 -- -- 56
2019-02-16 13:00:00 13 15 Sudeste 23 Sudeste 0 -- -- 62
2019-02-16 12:00:00 10.8 13 Sudeste 22 Sudeste 0 -- -- 70
2019-02-16 11:00:00 5.5 4 Nordeste 8 Este 0 -- -- 90
2019-02-16 10:00:00 1.2 5 Este 6 Este 0 -- -- 99
2019-02-16 09:00:00 -2.4 0 Calma 3 Sudoeste 0 -- -- 100
2019-02-16 08:00:00 -4.1 3 Sudoeste 4 Sudoeste 0 -- -- 98
2019-02-16 07:00:00 -4 0 Calma -- -- 0 -- -- 98
2019-02-16 06:00:00 -3.5 2 Oeste 2 Oeste 0 -- -- 98
2019-02-16 05:00:00 -3.6 0 Calma 5 Sudoeste 0 -- -- 97
2019-02-16 04:00:00 -3.4 3 Sudoeste 5 Sudoeste 0 -- -- 97
2019-02-16 03:00:00 -2.8 0 Calma 3 Sudoeste 0 -- -- 96
2019-02-16 02:00:00 -2.1 -- -- -- -- 0 -- -- 97
2019-02-16 01:00:00 -1.9 4 Sur 5 Sudoeste 0 -- -- 96
2019-02-16 00:00:00 -1.8 4 Sudoeste 6 Sudoeste 0 -- -- 94
2019-02-15 23:00:00 -0.6 0 Calma 4 Sudeste 0 -- -- 92
2019-02-15 22:00:00 0.5 4 Sur 6 Sudoeste 0 -- -- 90
2019-02-15 21:00:00 1.6 7 Sudoeste 9 Sudoeste 0 -- -- 85
2019-02-15 20:00:00 4 4 Sudoeste 5 Sudeste 0 -- -- 74
2019-02-15 19:00:00 9 4 Sudeste 7 Sur 0 -- -- 61
2019-02-15 18:00:00 12.9 4 Sur 14 Sudeste 0 -- -- 51
2019-02-15 17:00:00 14.2 10 Sudeste 16 Sudeste 0 -- -- 51
2019-02-15 16:00:00 14 9 Sur 18 Sudeste 0 -- -- 51
2019-02-15 15:00:00 13.4 9 Sudeste 15 Sur 0 -- -- 52
2019-02-15 14:00:00 11.7 6 Sudeste 13 Sudeste 0 -- -- 63
2019-02-15 13:00:00 10.2 8 Sudeste 15 Sudeste 0 -- -- 70
2019-02-15 12:00:00 9.2 6 Sudeste 14 Sur 0 -- -- 73
2019-02-15 11:00:00 5.8 4 Nordeste 9 Nordeste 0 -- -- 84
2019-02-15 10:00:00 2.5 2 Este 3 Sudoeste 0 -- -- 98
2019-02-15 09:00:00 -1.7 3 Sudoeste 4 Sudoeste 0 -- -- 100
2019-02-15 08:00:00 -3.3 0 Calma 4 Norte 0 -- -- 98
2019-02-15 07:00:00 -2.7 0 Calma 5 Sudoeste 0 -- -- 98
2019-02-15 06:00:00 -2.6 2 Sur 6 Sur 0 -- -- 97
2019-02-15 05:00:00 -2.3 4 Sudoeste 5 Sudoeste 0 -- -- 97
2019-02-15 04:00:00 -1.4 0 Calma 5 Sudeste 0 -- -- 97
2019-02-15 03:00:00 -0.9 2 Sudoeste 5 Sudeste 0 -- -- 97
2019-02-15 02:00:00 -0.4 0 Calma 6 Sudeste 0 -- -- 96
2019-02-15 01:00:00 0.5 6 Sudeste 8 Sudeste 0 -- -- 95
2019-02-15 00:00:00 0.4 6 Sur 10 Sur 0 -- -- 93
2019-02-14 23:00:00 0.8 4 Sur 8 Sur 0 -- -- 91
2019-02-14 22:00:00 1.7 4 Sur 8 Sur 0 -- -- 88
2019-02-14 21:00:00 3.2 5 Sur 9 Sudoeste 0 -- -- 82
2019-02-14 20:00:00 6.2 5 Sudeste 10 Sur 0 -- -- 74
2019-02-14 19:00:00 9 9 Sur 20 Sudeste 0 -- -- 62
2019-02-14 18:00:00 12.8 14 Sudeste 31 Sudeste 0 -- -- 49
2019-02-14 17:00:00 14.3 22 Sudeste 32 Sudeste 0 -- -- 45
2019-02-14 16:00:00 14.8 22 Sudeste 31 Sudeste 0 -- -- 48
2019-02-14 15:00:00 14.2 15 Sudeste 31 Sur 0 -- -- 54
2019-02-14 14:00:00 12.3 16 Sur 30 Sur 0 -- -- 62
2019-02-14 13:00:00 11.6 19 Sudeste 31 Sudeste 0 -- -- 66
2019-02-14 12:00:00 9.8 22 Sudeste 32 Sudeste 0 -- -- 74
2019-02-14 11:00:00 7.5 16 Sudeste 28 Sudeste 0 -- -- 87
2019-02-14 10:00:00 6.8 20 Sudeste 30 Sudeste 0 -- -- 92
2019-02-14 09:00:00 6.2 14 Sudeste 24 Sudeste 0 -- -- 97
2019-02-14 08:00:00 5.6 13 Sudeste 25 Sudeste 0 -- -- 99
2019-02-14 07:00:00 5.1 13 Sudeste 22 Sudeste 0 -- -- 100
2019-02-14 06:00:00 2 5 Sudeste 12 Sudeste 0 -- -- 100
2019-02-14 05:00:00 -0.2 8 Sur 10 Sur 0 -- -- 99
2019-02-14 04:00:00 0 2 Sudeste 9 Sudeste 0 -- -- 98
2019-02-14 03:00:00 -0.5 8 Sudeste 10 Sudeste 0 -- -- 97
2019-02-14 02:00:00 -0.6 3 Sudoeste 5 Sudoeste 0 -- -- 96
2019-02-14 01:00:00 0.2 0 Calma 4 Sudeste 0 -- -- 95
2019-02-14 00:00:00 0.8 0 Calma 4 Sudeste 0 -- -- 94
2019-02-13 23:00:00 1.7 0 Calma 6 Sudeste 0 -- -- 90
2019-02-13 22:00:00 2.9 2 Sudeste 7 Sudoeste 0 -- -- 90
2019-02-13 21:00:00 3.7 4 Sur 8 Sudoeste 0 -- -- 83
2019-02-13 20:00:00 5.8 5 Sur 8 Sur 0 -- -- 77
2019-02-13 19:00:00 9.8 7 Sur 13 Sudeste 0 -- -- 64
2019-02-13 18:00:00 13.6 10 Sudeste 21 Sudeste 0 -- -- 52
2019-02-13 17:00:00 15 13 Sudeste 23 Sudeste 0 -- -- 48
2019-02-13 16:00:00 15.5 13 Sudeste 22 Sudeste 0 -- -- 46
2019-02-13 15:00:00 14.9 15 Sudeste 25 Sudeste 0 -- -- 47
2019-02-13 14:00:00 13.3 10 Este 18 Sudeste 0 -- -- 54
2019-02-13 13:00:00 11.3 6 Sudeste 13 Sudeste 0 -- -- 55
2019-02-13 12:00:00 9 4 Este 9 Este 0 -- -- 68
2019-02-13 11:00:00 5.7 3 Norte 5 Norte 0.2 -- -- 81
2019-02-13 10:00:00 3.2 2 Norte 6 Oeste 0 -- -- 94
2019-02-13 09:00:00 -1.7 3 Sudoeste 4 Sudoeste 0 -- -- 99
2019-02-13 08:00:00 -3.7 3 Sudoeste 3 Sudoeste 0 -- -- 97
2019-02-13 07:00:00 -3.5 0 Calma 3 Sudoeste 0 -- -- 96
2019-02-13 06:00:00 -2.9 0 Calma 4 Sudoeste 0 -- -- 97
2019-02-13 05:00:00 -2.7 0 Calma 3 Sudoeste 0 -- -- 96
2019-02-13 04:00:00 -1.8 2 Sudoeste 5 Sudoeste 0 -- -- 97
2019-02-13 03:00:00 -2 3 Sur 4 Sur 0 -- -- 95
2019-02-13 02:00:00 -1.5 0 Calma 3 Oeste 0 -- -- 95
2019-02-13 01:00:00 -1.1 3 Sudoeste 4 Sudoeste 0 -- -- 93
2019-02-13 00:00:00 -0.4 2 Oeste 3 Sudoeste 0 -- -- 90
2019-02-12 23:00:00 1.1 0 Calma 5 Sur 0 -- -- 88
2019-02-12 22:00:00 2.2 3 Sur 5 Sur 0 -- -- 86
2019-02-12 21:00:00 3.5 5 Sur 8 Sur 0 -- -- 83
2019-02-12 20:00:00 5.3 4 Sudoeste 9 Oeste 0 -- -- 76
2019-02-12 19:00:00 9.9 0 Calma 0 Calma 0 -- -- 60
2019-02-12 18:00:00 13.1 0 Calma 4 Norte 0 -- -- 44
2019-02-12 17:00:00 13.7 2 Noroeste 8 Norte 0 -- -- 44
2019-02-12 16:00:00 13.6 4 Nordeste 10 Norte 0 -- -- 47
2019-02-12 15:00:00 13.1 4 Norte 10 Nordeste 0 -- -- 45
2019-02-12 14:00:00 12.8 3 Sudoeste 13 Norte 0 -- -- 47
2019-02-12 13:00:00 11.3 5 Nordeste 17 Norte 0 -- -- 51
2019-02-12 12:00:00 10.3 10 Norte 18 Norte 0 -- -- 60
2019-02-12 11:00:00 9.1 12 Noroeste 20 Noroeste 0 -- -- 71
2019-02-12 10:00:00 6 9 Noroeste 17 Noroeste 0 -- -- 88
2019-02-12 09:00:00 2.5 8 Noroeste 14 Noroeste 0 -- -- 98
2019-02-12 08:00:00 1.4 8 Noroeste 14 Noroeste 0 -- -- 97
2019-02-12 07:00:00 2.1 8 Noroeste 18 Noroeste 0 -- -- 96
2019-02-12 06:00:00 1.5 8 Noroeste 14 Noroeste 0 -- -- 95
2019-02-12 05:00:00 2.2 8 Noroeste 15 Norte 0 -- -- 93
2019-02-12 04:00:00 2.5 10 Noroeste 15 Noroeste 0 -- -- 92
2019-02-12 03:00:00 3.6 13 Noroeste 20 Noroeste 0 -- -- 88
2019-02-12 02:00:00 3.8 13 Noroeste 21 Noroeste 0 -- -- 88
2019-02-12 01:00:00 4.1 8 Norte 27 Noroeste 0 -- -- 87
2019-02-12 00:00:00 4.1 13 Noroeste 24 Noroeste 0 -- -- 89
2019-02-11 23:00:00 4.5 8 Noroeste 18 Noroeste 0 -- -- 86
2019-02-11 22:00:00 4.5 8 Noroeste 16 Noroeste 0 -- -- 83
2019-02-11 21:00:00 6.1 9 Noroeste 23 Noroeste 0 -- -- 80
2019-02-11 20:00:00 6.9 13 Noroeste 23 Noroeste 0 -- -- 79
2019-02-11 19:00:00 7.9 16 Noroeste 29 Noroeste 0 -- -- 74
2019-02-11 18:00:00 10.6 17 Noroeste 32 Noroeste 0 -- -- 64
2019-02-11 17:00:00 10.9 23 Noroeste 36 Norte 0 -- -- 62
2019-02-11 16:00:00 11 19 Noroeste 39 Noroeste 0 -- -- 62
2019-02-11 15:00:00 11 25 Noroeste 37 Noroeste 0 -- -- 61
2019-02-11 14:00:00 11 22 Noroeste 38 Noroeste 0 -- -- 62
2019-02-11 13:00:00 11.2 20 Noroeste 36 Noroeste 0 -- -- 61
2019-02-11 12:00:00 10.8 22 Noroeste 42 Noroeste 0 -- -- 63
2019-02-11 11:00:00 9.7 26 Noroeste 38 Noroeste 0 -- -- 65
2019-02-11 10:00:00 8.2 17 Noroeste 28 Noroeste 0 -- -- 72
2019-02-11 09:00:00 6.1 12 Noroeste 19 Noroeste 0 -- -- 82
2019-02-11 08:00:00 5.3 10 Noroeste 24 Oeste 0 -- -- 82
2019-02-11 07:00:00 5.4 13 Noroeste 21 Noroeste 0 -- -- 81
2019-02-11 06:00:00 5.5 9 Oeste 18 Oeste 0 -- -- 84
2019-02-11 05:00:00 4.6 6 Oeste 14 Noroeste 0 -- -- 86
2019-02-11 04:00:00 5.1 9 Noroeste 20 Noroeste 0 -- -- 84
2019-02-11 03:00:00 5.9 9 Oeste 18 Noroeste 0 -- -- 84
2019-02-11 02:00:00 6.8 13 Noroeste 28 Noroeste 0 -- -- 82
2019-02-11 01:00:00 7.6 19 Noroeste 28 Noroeste 0 -- -- 82
2019-02-11 00:00:00 7.5 16 Noroeste 28 Noroeste 0 -- -- 86
2019-02-10 23:00:00 7.1 18 Noroeste 29 Noroeste 0 -- -- 86
2019-02-10 22:00:00 7.3 17 Noroeste 26 Noroeste 0 -- -- 86
2019-02-10 21:00:00 7.6 14 Noroeste 27 Noroeste 0 -- -- 92
2019-02-10 20:00:00 8.1 20 Noroeste 31 Noroeste 0 -- -- 85
2019-02-10 19:00:00 8.7 10 Norte 32 Norte 0 -- -- 91
2019-02-10 18:00:00 9.4 13 Norte 24 Norte 0 -- -- 90
2019-02-10 17:00:00 10 7 Noroeste 32 Norte 0 -- -- 88
2019-02-10 16:00:00 11.1 19 Norte 36 Norte 0 -- -- 83
2019-02-10 15:00:00 15.1 10 Nordeste 19 Nordeste 0 -- -- 55
2019-02-10 14:00:00 15.3 10 Nordeste 17 Nordeste 0 -- -- 56
2019-02-10 13:00:00 13.8 5 Norte 14 Noroeste 0 -- -- 65
2019-02-10 12:00:00 12.8 8 Norte 17 Norte 0 -- -- 70
2019-02-10 11:00:00 13.6 3 Sudeste 28 Sur 0 -- -- 59
2019-02-10 10:00:00 12.1 16 Sur 23 Sur 0 -- -- 63
2019-02-10 09:00:00 8.4 13 Sudoeste 29 Sudoeste 0 -- -- 79
2019-02-10 08:00:00 6.7 21 Sur 31 Sudoeste 0 -- -- 93
2019-02-10 07:00:00 5.7 0 Calma 11 Este 0 -- -- 95
2019-02-10 06:00:00 5.5 3 Nordeste 10 Sur 0 -- -- 94
2019-02-10 05:00:00 5.7 4 Sur 5 Sur 0 -- -- 91
2019-02-10 04:00:00 6 3 Norte 5 Norte 0 -- -- 87
2019-02-10 03:00:00 7.4 2 Noroeste 12 Noroeste 0 -- -- 84
2019-02-10 02:00:00 8.4 5 Noroeste 9 Oeste 0 -- -- 80
2019-02-10 01:00:00 10 3 Noroeste 24 Sur 0 -- -- 68
2019-02-10 00:00:00 11.3 15 Sur 27 Sur 0 -- -- 61
2019-02-09 23:00:00 10.5 18 Este 28 Sudeste 0 -- -- 67
2019-02-09 22:00:00 11 21 Sudeste 30 Sudeste 0 -- -- 68
2019-02-09 21:00:00 11.4 16 Sudeste 26 Sudeste 0 -- -- 65
2019-02-09 20:00:00 9.4 5 Sudeste 15 Sudeste 0 -- -- 79
2019-02-09 19:00:00 10.8 8 Sur 12 Sudeste 0 -- -- 72
2019-02-09 18:00:00 13.5 9 Sudeste 17 Sudeste 0 -- -- 62
2019-02-09 17:00:00 15.2 15 Sudeste 24 Sudeste 0 -- -- 53
2019-02-09 16:00:00 15.5 15 Sudeste 23 Sudeste 0 -- -- 54
2019-02-09 15:00:00 14.6 8 Este 17 Este 0 -- -- 57
2019-02-09 14:00:00 13.8 3 Sudeste 16 Este 0 -- -- 61
2019-02-09 13:00:00 12 5 Este 9 Este 0 -- -- 69
2019-02-09 12:00:00 10 4 Nordeste 10 Este 0 -- -- 77
2019-02-09 11:00:00 7.7 4 Nordeste 8 Nordeste 0 -- -- 87
2019-02-09 10:00:00 4 0 Calma 4 Sur 0 -- -- 100
2019-02-09 09:00:00 -0.3 3 Sudoeste 4 Sur 0 -- -- 100
2019-02-09 08:00:00 -0.7 0 Calma 4 Sur 0 -- -- 99
2019-02-09 07:00:00 -0.3 4 Sudoeste 6 Sudoeste 0 -- -- 99
2019-02-09 06:00:00 0.1 4 Sur 6 Sudoeste 0 -- -- 99
2019-02-09 05:00:00 0.9 0 Calma 8 Sur 0 -- -- 98
2019-02-09 04:00:00 1.2 0 Calma 7 Sudoeste 0 -- -- 98
2019-02-09 03:00:00 2.1 3 Norte 10 Norte 0 -- -- 97
2019-02-09 02:00:00 2 2 Oeste 9 Sudoeste 0 -- -- 95
2019-02-09 01:00:00 3 3 Sudoeste 10 Sur 0 -- -- 94
2019-02-09 00:00:00 4.3 5 Norte 15 Noroeste 0 -- -- 95
2019-02-08 23:00:00 3.7 6 Noroeste 15 Norte 0 -- -- 95
2019-02-08 22:00:00 3.8 6 Nordeste 14 Sur 0 -- -- 92
2019-02-08 21:00:00 4.6 6 Sur 9 Sur 0 -- -- 87
2019-02-08 20:00:00 6.6 3 Sudoeste 8 Sur 0 -- -- 82
2019-02-08 19:00:00 9.7 3 Noroeste 10 Noroeste 0 -- -- 71
2019-02-08 18:00:00 12.8 6 Noroeste 11 Noroeste 0 -- -- 62
2019-02-08 17:00:00 14 4 Oeste 10 Oeste 0 -- -- 57
2019-02-08 16:00:00 13.2 3 Este 10 Sur 0 -- -- 59
2019-02-08 15:00:00 12.6 4 Sudeste 9 Este 0 -- -- 61
2019-02-08 14:00:00 11.4 5 Sudeste 13 Sudeste 0 -- -- 65
2019-02-08 13:00:00 9.8 4 Sudeste 12 Este 0 -- -- 72
2019-02-08 12:00:00 7.6 2 Nordeste 7 Nordeste 0.2 -- -- 81
2019-02-08 11:00:00 5 0 Calma 4 Este 0.2 -- -- 99
2019-02-08 10:00:00 1.5 4 Sur 5 Sur 0 -- -- 100
2019-02-08 09:00:00 -1.3 0 Calma 3 Noroeste 0 -- -- 99
2019-02-08 08:00:00 -1.9 0 Calma 3 Norte 0 -- -- 97
2019-02-08 07:00:00 -1.4 0 Calma 4 Sur 0 -- -- 97
2019-02-08 06:00:00 -0.8 0 Calma 5 Oeste 0 -- -- 96
2019-02-08 05:00:00 -0.1 0 Calma 2 Este 0 -- -- 95
2019-02-08 04:00:00 0.6 0 Calma 3 Sur 0 -- -- 96
2019-02-08 03:00:00 1.2 0 Calma 6 Sudoeste 0 -- -- 94
2019-02-08 02:00:00 2.5 0 Calma 4 Nordeste 0 -- -- 92
2019-02-08 01:00:00 3 4 Norte 6 Norte 0 -- -- 91
2019-02-08 00:00:00 4.9 0 Calma 12 Oeste 0 -- -- 87
2019-02-07 23:00:00 6.5 9 Noroeste 13 Noroeste 0 -- -- 82
2019-02-07 22:00:00 7.8 4 Oeste 11 Noroeste 0 -- -- 79
2019-02-07 21:00:00 7.9 6 Noroeste 9 Noroeste 0 -- -- 81
2019-02-07 20:00:00 8 5 Noroeste 13 Noroeste 0 -- -- 79
2019-02-07 19:00:00 9.2 8 Noroeste 17 Norte 0 -- -- 75
2019-02-07 18:00:00 10.3 7 Norte 27 Norte 0 -- -- 73
2019-02-07 17:00:00 12.7 14 Norte 32 Noroeste 0 -- -- 68
2019-02-07 16:00:00 14.3 16 Norte 28 Norte 0 -- -- 58
2019-02-07 15:00:00 14.8 16 Norte 26 Noroeste 0 -- -- 58
2019-02-07 14:00:00 14.6 14 Noroeste 23 Norte 0 -- -- 59
2019-02-07 13:00:00 14 15 Noroeste 24 Noroeste 0 -- -- 57
2019-02-07 12:00:00 11.8 12 Noroeste 17 Noroeste 0 -- -- 66
2019-02-07 11:00:00 9.3 10 Noroeste 19 Noroeste 0 -- -- 76
2019-02-07 10:00:00 8 4 Noroeste 12 Noroeste 0 -- -- 87
2019-02-07 09:00:00 3.5 2 Sudeste 12 Oeste 0 -- -- 100
2019-02-07 08:00:00 1.5 5 Norte 10 Sudoeste 0 -- -- 100
2019-02-07 07:00:00 0.6 5 Sudoeste 10 Oeste 0 -- -- 99
2019-02-07 06:00:00 0.2 2 Oeste 5 Oeste 0 -- -- 98
2019-02-07 05:00:00 0.9 2 Sudoeste 5 Sudoeste 0 -- -- 98
2019-02-07 04:00:00 1.5 3 Sudoeste 6 Sur 0 -- -- 98
2019-02-07 03:00:00 1.6 3 Sur 5 Oeste 0 -- -- 97
2019-02-07 02:00:00 2.2 2 Oeste 8 Sur 0 -- -- 97
2019-02-07 01:00:00 2.4 2 Sur 5 Sudoeste 0 -- -- 95
2019-02-07 00:00:00 3.1 4 Sudoeste 6 Sudoeste 0 -- -- 93
2019-02-06 23:00:00 4.2 0 Calma 5 Norte 0 -- -- 89
2019-02-06 22:00:00 5.9 2 Sur 12 Sur 0 -- -- 88
2019-02-06 21:00:00 7.3 10 Sur 12 Sur 0 -- -- 87
2019-02-06 20:00:00 8.3 6 Sudoeste 8 Sudoeste 0 -- -- 81
2019-02-06 19:00:00 11.6 6 Sudoeste 8 Sudoeste 0 -- -- 73
2019-02-06 18:00:00 16.6 0 Calma 4 Sudoeste 0 -- -- 57
2019-02-06 17:00:00 16.8 4 Sudoeste 8 Sudeste 0 -- -- 56
2019-02-06 16:00:00 16.8 4 Este 12 Nordeste 0 -- -- 54
2019-02-06 15:00:00 15.9 4 Norte 13 Nordeste 0 -- -- 55
2019-02-06 14:00:00 14.3 4 Norte 8 Nordeste 0 -- -- 59
2019-02-06 13:00:00 12.7 4 Norte 14 Norte 0 -- -- 63
2019-02-06 12:00:00 11.2 8 Noroeste 13 Noroeste 0 -- -- 68
2019-02-06 11:00:00 8.2 6 Noroeste 13 Noroeste 0 -- -- 80
2019-02-06 10:00:00 5.8 5 Noroeste 13 Noroeste 0 -- -- 93
2019-02-06 09:00:00 1.9 2 Sudoeste 11 Noroeste 0 -- -- 95
2019-02-06 08:00:00 2.6 9 Noroeste 14 Noroeste 0 -- -- 97
2019-02-06 07:00:00 2.5 8 Oeste 14 Oeste 0 -- -- 96
2019-02-06 06:00:00 2.6 0 Calma 12 Noroeste 0 -- -- 94
2019-02-06 05:00:00 3.3 3 Norte 17 Noroeste 0 -- -- 94
2019-02-06 04:00:00 4.1 6 Noroeste 14 Noroeste 0 -- -- 93
2019-02-06 03:00:00 4.8 8 Noroeste 18 Oeste 0 -- -- 92
2019-02-06 02:00:00 5.2 13 Noroeste 17 Noroeste 0 -- -- 93
2019-02-06 01:00:00 5.6 10 Noroeste 17 Noroeste 0 -- -- 94
2019-02-06 00:00:00 4.9 2 Noroeste 9 Noroeste 0 -- -- 91
2019-02-05 23:00:00 5.8 5 Noroeste 13 Noroeste 0 -- -- 91
2019-02-05 22:00:00 7.1 5 Oeste 8 Noroeste 0 -- -- 84
2019-02-05 21:00:00 9.1 3 Oeste 13 Norte 0 -- -- 83
2019-02-05 20:00:00 11.3 6 Norte 12 Noroeste 0 -- -- 81
2019-02-05 19:00:00 11.9 7 Norte 14 Noroeste 0 -- -- 73
2019-02-05 18:00:00 13.9 11 Noroeste 28 Noroeste 0 -- -- 64
2019-02-05 17:00:00 15.4 20 Noroeste 30 Norte 0 -- -- 59
2019-02-05 16:00:00 15.8 18 Noroeste 29 Norte 0 -- -- 55
2019-02-05 15:00:00 14.6 20 Noroeste 33 Noroeste 0 -- -- 58
2019-02-05 14:00:00 15 18 Noroeste 31 Noroeste 0 -- -- 54
2019-02-05 13:00:00 13.7 15 Norte 27 Noroeste 0 -- -- 54
2019-02-05 12:00:00 10 16 Noroeste 27 Noroeste 0 -- -- 66
2019-02-05 11:00:00 9 14 Noroeste 24 Noroeste 0 -- -- 68
2019-02-05 10:00:00 8.2 13 Noroeste 20 Noroeste 0 -- -- 72
2019-02-05 09:00:00 3.8 5 Oeste 13 Noroeste 0 -- -- 87
2019-02-05 08:00:00 4.4 10 Oeste 13 Oeste 0 -- -- 87
2019-02-05 07:00:00 4.3 9 Noroeste 14 Noroeste 0 -- -- 83
2019-02-05 06:00:00 4.6 9 Noroeste 17 Noroeste 0 -- -- 82
2019-02-05 05:00:00 5.4 5 Norte 20 Noroeste 0 -- -- 80
2019-02-05 04:00:00 6.6 9 Noroeste 14 Noroeste 0 -- -- 78
2019-02-05 03:00:00 6.7 9 Noroeste 14 Noroeste 0 -- -- 75
2019-02-05 02:00:00 6.5 8 Noroeste 13 Noroeste 0 -- -- 77
2019-02-05 01:00:00 5.9 5 Oeste 11 Noroeste 0 -- -- 80
2019-02-05 00:00:00 5.3 7 Oeste 13 Noroeste 0 -- -- 81
2019-02-04 23:00:00 5.9 5 Noroeste 15 Noroeste 0 -- -- 76
2019-02-04 22:00:00 6.9 12 Noroeste 23 Noroeste 0 -- -- 72
2019-02-04 21:00:00 7.2 9 Noroeste 24 Noroeste 0 -- -- 71
2019-02-04 20:00:00 7.3 17 Noroeste 27 Norte 0 -- -- 68
2019-02-04 19:00:00 7.5 17 Norte 28 Noroeste 0 -- -- 66
2019-02-04 18:00:00 8 16 Norte 34 Noroeste 0 -- -- 66
2019-02-04 17:00:00 8.9 16 Noroeste 39 Noroeste 0 -- -- 63
2019-02-04 16:00:00 10.6 27 Noroeste 39 Noroeste 0 -- -- 52
2019-02-04 15:00:00 11.9 24 Noroeste 42 Noroeste 0 -- -- 51
2019-02-04 14:00:00 11.2 20 Noroeste 33 Noroeste 0 -- -- 51
2019-02-04 13:00:00 10.2 23 Noroeste 37 Noroeste 0 -- -- 54
2019-02-04 12:00:00 7 21 Noroeste 35 Noroeste 0 -- -- 64
2019-02-04 11:00:00 5.7 12 Noroeste 24 Norte 0 -- -- 68
2019-02-04 10:00:00 3.1 14 Norte 21 Noroeste 0 -- -- 76
2019-02-04 09:00:00 0.9 7 Noroeste 22 Noroeste 0 -- -- 89
2019-02-04 08:00:00 0.5 16 Noroeste 32 Noroeste 0 -- -- 88
2019-02-04 07:00:00 0.6 15 Noroeste 33 Noroeste 0 -- -- 90
2019-02-04 06:00:00 1 19 Noroeste 30 Noroeste 0 -- -- 90
2019-02-04 05:00:00 1.4 18 Noroeste 26 Noroeste 0 -- -- 89
2019-02-04 04:00:00 2.3 10 Noroeste 30 Noroeste 0 -- -- 83
2019-02-04 03:00:00 2.9 13 Noroeste 23 Noroeste 0 -- -- 85
2019-02-04 02:00:00 2 12 Noroeste 22 Noroeste 0 -- -- 88
2019-02-04 01:00:00 2.5 14 Noroeste 24 Noroeste 0 -- -- 87
2019-02-04 00:00:00 2.7 14 Noroeste 23 Noroeste 0 -- -- 87
2019-02-03 23:00:00 2.8 17 Noroeste 28 Noroeste 0 -- -- 86
2019-02-03 22:00:00 2.8 9 Noroeste 29 Noroeste 0 -- -- 87
2019-02-03 21:00:00 3.5 17 Noroeste 30 Noroeste 0 -- -- 84
2019-02-03 20:00:00 3.6 14 Noroeste 32 Noroeste 0 -- -- 82
2019-02-03 19:00:00 4.8 19 Noroeste 32 Noroeste 0 -- -- 78
2019-02-03 18:00:00 5.8 25 Noroeste 38 Noroeste 0 -- -- 73
2019-02-03 17:00:00 7.3 26 Noroeste 46 Noroeste 0 -- -- 68
2019-02-03 16:00:00 7.5 31 Noroeste 51 Noroeste 0 -- -- 67
2019-02-03 15:00:00 6.9 34 Noroeste 53 Noroeste 0 -- -- 73
2019-02-03 14:00:00 6.4 24 Noroeste 46 Noroeste 0 -- -- 80
2019-02-03 13:00:00 4.9 21 Norte 42 Noroeste 0 -- -- 81
2019-02-03 12:00:00 5.2 26 Noroeste 46 Noroeste 0 -- -- 85
2019-02-03 11:00:00 3.8 27 Noroeste 46 Noroeste 0 -- -- 93
2019-02-03 10:00:00 3 18 Norte 39 Noroeste 0.2 -- -- 93
2019-02-03 09:00:00 2 23 Noroeste 37 Noroeste 0.2 -- -- 96
2019-02-03 08:00:00 1.3 24 Noroeste 36 Noroeste 0 -- -- 97
2019-02-03 07:00:00 1.4 14 Norte 45 Noroeste 0.4 -- -- 98
2019-02-03 06:00:00 0.6 10 Noroeste 22 Noroeste 0 -- -- 99
2019-02-03 05:00:00 0.7 6 Norte 23 Noroeste 0 -- -- 99
2019-02-03 04:00:00 0.9 15 Noroeste 37 Norte 0.6 -- -- 97
2019-02-03 03:00:00 1.6 15 Noroeste 33 Nordeste 0.4 -- -- 94
2019-02-03 02:00:00 2.2 12 Norte 36 Noroeste 0 -- -- 91
2019-02-03 01:00:00 1.5 24 Noroeste 44 Noroeste 0 -- -- 96
2019-02-03 00:00:00 1.8 31 Noroeste 55 Noroeste 0.2 -- -- 96
2019-02-02 23:00:00 1.3 28 Noroeste 45 Noroeste 1.4 -- -- 97
2019-02-02 22:00:00 2.3 26 Noroeste 42 Noroeste 0 -- -- 97
2019-02-02 21:00:00 1.5 21 Noroeste 39 Noroeste 1.2 -- -- 98
2019-02-02 20:00:00 2 30 Noroeste 44 Noroeste 1.2 -- -- 95
2019-02-02 19:00:00 1.5 8 Norte 48 Noroeste 0.4 -- -- 98
2019-02-02 18:00:00 1.3 28 Noroeste 53 Noroeste 3.2 -- -- 97
2019-02-02 17:00:00 5 37 Noroeste 65 Noroeste 0 -- -- 79
2019-02-02 16:00:00 6.1 26 Norte 62 Noroeste 0 -- -- 68
2019-02-02 15:00:00 6.8 45 Noroeste 64 Noroeste 0 -- -- 69
2019-02-02 14:00:00 5.8 27 Noroeste 68 Noroeste 0 -- -- 78
2019-02-02 13:00:00 6.6 38 Noroeste 65 Noroeste 0 -- -- 73
2019-02-02 12:00:00 5.2 45 Noroeste 73 Noroeste 0 -- -- 78
2019-02-02 11:00:00 5.8 43 Noroeste 67 Noroeste 0 -- -- 82
2019-02-02 10:00:00 5.6 41 Noroeste 77 Noroeste 0 -- -- 80
2019-02-02 09:00:00 4 32 Noroeste 59 Noroeste 0 -- -- 89
2019-02-02 08:00:00 3.9 33 Noroeste 58 Noroeste 2 -- -- 93
2019-02-02 07:00:00 3.5 33 Noroeste 65 Noroeste 1.8 -- -- 93
2019-02-02 06:00:00 4.5 33 Noroeste 56 Noroeste 0 -- -- 87
2019-02-02 05:00:00 4.5 19 Noroeste 40 Noroeste 0 -- -- 84
2019-02-02 04:00:00 5.2 19 Noroeste 36 Noroeste 0 -- -- 82
2019-02-02 03:00:00 5 15 Noroeste 39 Noroeste 0 -- -- 82
2019-02-02 02:00:00 4.1 19 Noroeste 33 Noroeste 0 -- -- 90
2019-02-02 01:00:00 3.2 3 Sur 7 Sur 0 -- -- 91
2019-02-02 00:00:00 2.6 0 Calma 10 Oeste 0 -- -- 89
2019-02-01 23:00:00 3.1 4 Norte 9 Norte 0 -- -- 85
2019-02-01 22:00:00 5 2 Norte 8 Sur 0 -- -- 77
2019-02-01 21:00:00 6.1 6 Oeste 24 Sudoeste 0 -- -- 70
2019-02-01 20:00:00 6 9 Oeste 25 Oeste 0 -- -- 69
2019-02-01 19:00:00 7.1 6 Noroeste 15 Oeste 0 -- -- 66
2019-02-01 18:00:00 10 15 Oeste 42 Sudoeste 0 -- -- 56
2019-02-01 17:00:00 10.8 34 Sudoeste 66 Sudoeste 0 -- -- 57
2019-02-01 16:00:00 12.4 44 Oeste 66 Oeste 0 -- -- 53
2019-02-01 15:00:00 14.2 23 Sudoeste 57 Sudoeste 0 -- -- 52
2019-02-01 14:00:00 12.7 26 Sudoeste 55 Sudoeste 0 -- -- 57
2019-02-01 13:00:00 11.9 23 Sudoeste 45 Sudoeste 0 -- -- 56
2019-02-01 12:00:00 12.4 26 Oeste 48 Sudoeste 0 -- -- 53
2019-02-01 11:00:00 11.6 24 Oeste 46 Sudoeste 0 -- -- 55
2019-02-01 10:00:00 10 22 Sudoeste 33 Oeste -- -- -- 65
2019-02-01 09:00:00 5.6 5 Noroeste 26 Oeste 0 -- -- 87
2019-02-01 08:00:00 4.2 8 Sudoeste 13 Oeste 0 -- -- 90
2019-02-01 07:00:00 5.7 3 Este 14 Sudoeste 0 -- -- 85
2019-02-01 06:00:00 7.3 5 Noroeste 14 Oeste 0 -- -- 85
2019-02-01 05:00:00 9.2 14 Sudoeste 26 Oeste 0 -- -- 79
2019-02-01 04:00:00 9 4 Este 27 Sur 0 -- -- 93
2019-02-01 03:00:00 8.5 13 Sudeste 21 Sur 0.8 -- -- 98
2019-02-01 02:00:00 8.2 6 Sudoeste 14 Noroeste 0.8 -- -- 97
2019-02-01 01:00:00 7.9 7 Noroeste 16 Noroeste 0 -- -- 96
2019-02-01 00:00:00 7.6 8 Norte 15 Noroeste 0 -- -- 94
2019-01-31 23:00:00 9 5 Norte 24 Oeste 0 -- -- 86
2019-01-31 22:00:00 11.8 14 Oeste 45 Sudoeste 0 -- -- 75
2019-01-31 21:00:00 12.9 24 Sudoeste 44 Sudoeste 0 -- -- 75
2019-01-31 20:00:00 8.8 9 Sudoeste 15 Sudoeste 0 -- -- 96
2019-01-31 19:00:00 8.4 6 Sur 11 Sudeste 0 -- -- 93
2019-01-31 18:00:00 9.8 0 Calma 12 Oeste 0 -- -- 89
2019-01-31 17:00:00 10.4 5 Noroeste 8 Noroeste 0 -- -- 88
2019-01-31 16:00:00 10.3 0 Calma 4 Sudeste 0 -- -- 87
2019-01-31 15:00:00 9.5 0 Calma 6 Noroeste 0 -- -- 87
2019-01-31 14:00:00 8.6 5 Sudeste 12 Sudeste 0 -- -- 90
2019-01-31 13:00:00 7.6 2 Sudeste 10 Sudeste 0 -- -- 93
2019-01-31 12:00:00 6.6 3 Sudeste 9 Este 0 -- -- 97
2019-01-31 11:00:00 5.6 5 Este 10 Este 0 -- -- 99
2019-01-31 10:00:00 4.9 0 Calma 5 Este 0.4 -- -- 99
2019-01-31 09:00:00 4.6 2 Este 4 Este 1 -- -- 99
2019-01-31 08:00:00 4.5 3 Nordeste 6 Este 0.4 -- -- 98
2019-01-31 07:00:00 4.6 3 Nordeste 9 Este 0 -- -- 98
2019-01-31 06:00:00 4.6 5 Este 12 Este 0 -- -- 98
2019-01-31 05:00:00 4.8 8 Este 12 Este 0.2 -- -- 98
2019-01-31 04:00:00 5.3 4 Este 10 Sudeste 0.4 -- -- 97
2019-01-31 03:00:00 5.4 4 Sudeste 18 Este 0.4 -- -- 96
2019-01-31 02:00:00 5.8 10 Este 20 Sudeste 0.4 -- -- 94
2019-01-31 01:00:00 6.3 17 Sudeste 29 Sudeste 0.2 -- -- 90
2019-01-31 00:00:00 6.3 16 Sur 26 Sur 0.4 -- -- 88
2019-01-30 23:00:00 6.4 13 Sur 21 Sur 0.2 -- -- 86
2019-01-30 22:00:00 5.8 5 Este 13 Sudeste 0.2 -- -- 89
2019-01-30 21:00:00 6.8 7 Sudoeste 11 Sudoeste 0 -- -- 76
2019-01-30 20:00:00 6.6 6 Este 10 Este 0 -- -- 68
2019-01-30 19:00:00 7.2 5 Sudeste 8 Este 0 -- -- 64
2019-01-30 18:00:00 8.9 4 Nordeste 5 Nordeste 0 -- -- 58
2019-01-30 17:00:00 10.3 0 Calma 8 Norte 0 -- -- 45
2019-01-30 16:00:00 10.6 6 Norte 20 Noroeste 0 -- -- 45
2019-01-30 15:00:00 11.2 13 Noroeste 27 Noroeste 0 -- -- 47
2019-01-30 14:00:00 11.2 20 Noroeste 28 Noroeste 0 -- -- 48
2019-01-30 13:00:00 10.7 7 Oeste 18 Oeste 0 -- -- 53
2019-01-30 12:00:00 9.5 4 Sur 9 Sudoeste 0 -- -- 59
2019-01-30 11:00:00 6.5 3 Oeste 8 Oeste 0 -- -- 76
2019-01-30 10:00:00 4.4 3 Sudoeste 15 Sur 0 -- -- 89
2019-01-30 09:00:00 2.2 3 Noroeste 12 Sudoeste 0.2 -- -- 90
2019-01-30 08:00:00 3 2 Norte 9 Sudoeste 0 -- -- 86
2019-01-30 07:00:00 3.9 0 Calma 10 Norte 0 -- -- 83
2019-01-30 06:00:00 4.5 6 Norte 26 Noroeste 0 -- -- 82
2019-01-30 05:00:00 4.7 15 Noroeste 26 Norte 0 -- -- 82
2019-01-30 04:00:00 4.9 13 Norte 24 Norte 0 -- -- 81
2019-01-30 03:00:00 4.7 6 Norte 16 Norte 0 -- -- 84
2019-01-30 02:00:00 5.1 12 Norte 29 Noroeste 0 -- -- 81
2019-01-30 01:00:00 5.4 15 Norte 40 Noroeste 0 -- -- 81
2019-01-30 00:00:00 5.6 15 Noroeste 31 Noroeste 0 -- -- 81
2019-01-29 23:00:00 6 14 Norte 33 Noroeste 0 -- -- 84
2019-01-29 22:00:00 6.6 24 Noroeste 41 Noroeste 0 -- -- 80
2019-01-29 21:00:00 5.3 10 Noroeste 21 Noroeste 0 -- -- 85
2019-01-29 20:00:00 5.9 5 Noroeste 14 Noroeste 0 -- -- 91
2019-01-29 19:00:00 6.8 7 Oeste 12 Noroeste 0 -- -- 95
2019-01-29 18:00:00 6.8 6 Noroeste 15 Oeste 0.8 -- -- 92
2019-01-29 17:00:00 8 5 Noroeste 15 Nordeste 0.4 -- -- 87
2019-01-29 16:00:00 9.5 5 Este 14 Nordeste 0 -- -- 71
2019-01-29 15:00:00 9.2 9 Nordeste 15 Nordeste 0 -- -- 67
2019-01-29 14:00:00 9.4 9 Este 15 Este 0 -- -- 68
2019-01-29 13:00:00 8.9 9 Este 16 Este 0 -- -- 62
2019-01-29 12:00:00 9 7 Este 13 Este 0 -- -- 63
2019-01-29 11:00:00 7.5 5 Sudeste 8 Sudeste 0 -- -- 68
2019-01-29 10:00:00 6.2 3 Este 5 Este 0 -- -- 80
2019-01-29 09:00:00 5.2 0 Calma 13 Sur 0 -- -- 81
2019-01-29 08:00:00 4.2 4 Noroeste 9 Noroeste 0 -- -- 89
2019-01-29 07:00:00 4.6 8 Noroeste 13 Noroeste 0 -- -- 89
2019-01-29 06:00:00 5.1 10 Noroeste 15 Noroeste 0 -- -- 87
2019-01-29 05:00:00 5.9 8 Noroeste 22 Noroeste 0 -- -- 84
2019-01-29 04:00:00 5.6 10 Noroeste 16 Noroeste 0 -- -- 87
2019-01-29 03:00:00 5.1 8 Noroeste 27 Noroeste 0 -- -- 86
2019-01-29 02:00:00 6.4 21 Noroeste 32 Noroeste 0 -- -- 81
2019-01-29 01:00:00 6.4 18 Noroeste 40 Noroeste 0 -- -- 83
2019-01-29 00:00:00 6.1 16 Noroeste 35 Noroeste 0 -- -- 84
2019-01-28 23:00:00 6.8 19 Noroeste 34 Noroeste 0 -- -- 82
2019-01-28 22:00:00 7.1 25 Noroeste 38 Noroeste 0 -- -- 81
2019-01-28 21:00:00 6.6 15 Noroeste 29 Norte 0 -- -- 84
2019-01-28 20:00:00 6.5 15 Noroeste 30 Noroeste 0.2 -- -- 87
2019-01-28 19:00:00 6.8 20 Noroeste 42 Noroeste 0 -- -- 88
2019-01-28 18:00:00 8.2 29 Noroeste 56 Noroeste 0 -- -- 82
2019-01-28 17:00:00 8.3 28 Noroeste 57 Noroeste 0 -- -- 85
2019-01-28 16:00:00 9 29 Noroeste 63 Noroeste 0.2 -- -- 84
2019-01-28 15:00:00 11 41 Noroeste 72 Noroeste 0 -- -- 65
2019-01-28 14:00:00 11 37 Noroeste 58 Noroeste 0 -- -- 69
2019-01-28 13:00:00 9.5 28 Noroeste 47 Noroeste 0 -- -- 84
2019-01-28 12:00:00 9.1 34 Noroeste 52 Noroeste 0 -- -- 78
2019-01-28 11:00:00 9.7 30 Noroeste 47 Noroeste 0 -- -- 66
2019-01-28 10:00:00 8 26 Noroeste 38 Noroeste 0 -- -- 69
2019-01-28 09:00:00 7.5 18 Noroeste 50 Oeste 0 -- -- 69
2019-01-28 08:00:00 4.8 10 Noroeste 31 Norte 0 -- -- 76
2019-01-28 07:00:00 5.4 19 Norte 30 Norte 0 -- -- 73
2019-01-28 06:00:00 4.2 13 Noroeste 21 Noroeste 0 -- -- 78
2019-01-28 05:00:00 2.2 4 Oeste 14 Noroeste 0 -- -- 81
2019-01-28 04:00:00 4.6 10 Noroeste 21 Noroeste 0 -- -- 77
2019-01-28 03:00:00 5.3 15 Noroeste 29 Noroeste 0 -- -- 75
2019-01-28 02:00:00 6.1 18 Noroeste 34 Noroeste 0 -- -- 70
2019-01-28 01:00:00 5.7 16 Noroeste 31 Noroeste 0 -- -- 78
2019-01-28 00:00:00 6.2 19 Noroeste 30 Noroeste 0 -- -- 76
2019-01-27 23:00:00 5.4 12 Noroeste 30 Noroeste 0 -- -- 80
2019-01-27 22:00:00 5.7 14 Norte 34 Noroeste 0 -- -- 77
2019-01-27 21:00:00 5.8 19 Noroeste 40 Noroeste 0 -- -- 77
2019-01-27 20:00:00 6.7 24 Noroeste 44 Noroeste 0 -- -- 75
2019-01-27 19:00:00 6.4 24 Noroeste 51 Noroeste 0 -- -- 76
2019-01-27 18:00:00 7.9 31 Noroeste 57 Noroeste 0 -- -- 63
2019-01-27 17:00:00 8.6 30 Noroeste 57 Noroeste 0 -- -- 61
2019-01-27 16:00:00 11.2 30 Noroeste 59 Noroeste 0 -- -- 54
2019-01-27 15:00:00 8.7 36 Noroeste 53 Noroeste 0 -- -- 67
2019-01-27 14:00:00 9.7 23 Noroeste 69 Noroeste 0 -- -- 72
2019-01-27 13:00:00 11.2 35 Noroeste 60 Oeste 0 -- -- 53
2019-01-27 12:00:00 11.8 32 Noroeste 56 Norte 0 -- -- 55
2019-01-27 11:00:00 10.7 31 Noroeste 56 Noroeste 0 -- -- 56
2019-01-27 10:00:00 9.2 17 Noroeste 33 Noroeste 0 -- -- 74
2019-01-27 09:00:00 6.7 14 Noroeste 26 Noroeste 0 -- -- 89
2019-01-27 08:00:00 4.3 7 Oeste 12 Noroeste 0 -- -- 99
2019-01-27 07:00:00 1.7 2 Sudoeste 15 Noroeste 0 -- -- 99
2019-01-27 06:00:00 -0.6 2 Sudoeste 4 Norte 0 -- -- 98
2019-01-27 05:00:00 -0.8 3 Sudoeste 6 Sur 0 -- -- 98
2019-01-27 04:00:00 -0.7 5 Sur 6 Sudoeste 0 -- -- 97
2019-01-27 03:00:00 -0.1 4 Sudoeste 10 Sur 0 -- -- 96
2019-01-27 02:00:00 0.9 4 Sudoeste 7 Sudoeste 0 -- -- 96
2019-01-27 01:00:00 1.4 3 Oeste 11 Sudoeste 0 -- -- 95
2019-01-27 00:00:00 2.2 6 Sudoeste 8 Sudoeste 0 -- -- 95
2019-01-26 23:00:00 2.7 4 Noroeste 8 Oeste 0 -- -- 94
2019-01-26 22:00:00 3.4 4 Oeste 6 Oeste 0 -- -- 91
2019-01-26 21:00:00 4.8 3 Sudoeste 8 Sur 0 -- -- 89
2019-01-26 20:00:00 5.9 6 Sudoeste 9 Sudoeste 0 -- -- 85
2019-01-26 19:00:00 8.5 5 Sudoeste 12 Noroeste 0 -- -- 74
2019-01-26 18:00:00 12.6 4 Noroeste 10 Noroeste 0 -- -- 64
2019-01-26 17:00:00 13.4 7 Noroeste 15 Norte 0 -- -- 60
2019-01-26 16:00:00 13.4 10 Norte 20 Norte 0 -- -- 57
2019-01-26 15:00:00 13.5 12 Norte 23 Noroeste 0 -- -- 55
2019-01-26 14:00:00 13.2 15 Norte 26 Noroeste 0 -- -- 56
2019-01-26 13:00:00 12.1 19 Noroeste 31 Noroeste 0 -- -- 59
2019-01-26 12:00:00 11.7 15 Noroeste 30 Noroeste 0 -- -- 63
2019-01-26 11:00:00 10.8 19 Noroeste 30 Norte 0 -- -- 66
2019-01-26 10:00:00 9.5 9 Noroeste 16 Noroeste 0 -- -- 76
2019-01-26 09:00:00 7.5 6 Noroeste 15 Noroeste 0 -- -- 83
2019-01-26 08:00:00 8 9 Noroeste 19 Noroeste 0 -- -- 82
2019-01-26 07:00:00 8.4 12 Noroeste 19 Noroeste 0 -- -- 80
2019-01-26 06:00:00 8.9 13 Noroeste 29 Noroeste 0 -- -- 75
2019-01-26 05:00:00 9.2 13 Noroeste 24 Noroeste 0 -- -- 74
2019-01-26 04:00:00 9.5 18 Noroeste 31 Noroeste 0 -- -- 73
2019-01-26 03:00:00 10 20 Noroeste 39 Noroeste 0 -- -- 72
2019-01-26 02:00:00 9.8 14 Noroeste 29 Noroeste 0 -- -- 73
2019-01-26 01:00:00 9.7 16 Noroeste 35 Noroeste 0 -- -- 73
2019-01-26 00:00:00 9.7 23 Noroeste 38 Noroeste 0 -- -- 72
2019-01-25 23:00:00 9.8 24 Noroeste 37 Noroeste 0 -- -- 72
2019-01-25 22:00:00 10 19 Noroeste 41 Noroeste 0 -- -- 71
2019-01-25 21:00:00 9.9 23 Noroeste 37 Noroeste 0 -- -- 73
2019-01-25 20:00:00 10 22 Noroeste 48 Noroeste 0 -- -- 74
2019-01-25 19:00:00 10.6 28 Noroeste 46 Noroeste 0 -- -- 70
2019-01-25 18:00:00 10.9 27 Noroeste 47 Noroeste 0 -- -- 68
2019-01-25 17:00:00 11.6 29 Noroeste 50 Noroeste 0 -- -- 68
2019-01-25 16:00:00 12.7 34 Noroeste 55 Noroeste 0 -- -- 65
2019-01-25 15:00:00 14 36 Noroeste 59 Noroeste 0 -- -- 62
2019-01-25 14:00:00 13.3 41 Noroeste 60 Noroeste 0 -- -- 64
2019-01-25 13:00:00 12.2 29 Noroeste 53 Noroeste 0.2 -- -- 69
2019-01-25 12:00:00 11.6 36 Noroeste 57 Noroeste 0 -- -- 71
2019-01-25 11:00:00 12.1 32 Noroeste 60 Noroeste 0 -- -- 73
2019-01-25 10:00:00 10.5 32 Noroeste 50 Noroeste 0 -- -- 79
2019-01-25 09:00:00 10.4 33 Noroeste 50 Noroeste 0 -- -- 78
2019-01-25 08:00:00 10.1 32 Noroeste 49 Noroeste 0 -- -- 80
2019-01-25 07:00:00 9.7 32 Noroeste 54 Noroeste 0 -- -- 80
2019-01-25 06:00:00 9.8 30 Noroeste 48 Noroeste 0 -- -- 81
2019-01-25 05:00:00 9.6 31 Noroeste 45 Noroeste 0 -- -- 84
2019-01-25 04:00:00 6.8 7 Norte 14 Nordeste 0 -- -- 91
2019-01-25 03:00:00 5.8 5 Nordeste 8 Nordeste 0 -- -- 91
2019-01-25 02:00:00 5.2 4 Nordeste 9 Noroeste 0 -- -- 92
2019-01-25 01:00:00 5 6 Norte 17 Norte 0 -- -- 89
2019-01-25 00:00:00 4.3 9 Norte 22 Norte 0 -- -- 88
2019-01-24 23:00:00 4.6 10 Noroeste 32 Norte 0 -- -- 88
2019-01-24 22:00:00 5.1 18 Norte 31 Norte 0 -- -- 85
2019-01-24 21:00:00 4.8 9 Norte 17 Norte 0 -- -- 86
2019-01-24 20:00:00 4.5 9 Norte 20 Norte 0 -- -- 87
2019-01-24 19:00:00 4.9 15 Norte 31 Norte 0 -- -- 86
2019-01-24 18:00:00 5.5 16 Norte 28 Norte 0 -- -- 87
2019-01-24 17:00:00 5.8 15 Norte 24 Norte 0 -- -- 89
2019-01-24 16:00:00 6.1 18 Norte 29 Norte 0 -- -- 91
2019-01-24 15:00:00 6 14 Norte 24 Norte 0.2 -- -- 95
2019-01-24 14:00:00 5.2 8 Noroeste 15 Noroeste 0 -- -- 98
2019-01-24 13:00:00 4.6 9 Norte 15 Noroeste 0.2 -- -- 96
2019-01-24 12:00:00 4.2 9 Noroeste 15 Noroeste 0.2 -- -- 95
2019-01-24 11:00:00 3.7 9 Norte 19 Norte 0.2 -- -- 94
2019-01-24 10:00:00 3.8 12 Norte 24 Norte 0.4 -- -- 92
2019-01-24 09:00:00 4.1 12 Nordeste 19 Norte 0 -- -- 91
2019-01-24 08:00:00 4.1 12 Norte 23 Nordeste 0 -- -- 92
2019-01-24 07:00:00 5 8 Norte 28 Noroeste 0.2 -- -- 91
2019-01-24 06:00:00 5.6 14 Norte 31 Norte 0 -- -- 86
2019-01-24 05:00:00 5.8 19 Noroeste 35 Noroeste 0 -- -- 85
2019-01-24 04:00:00 5.9 18 Noroeste 32 Noroeste 0 -- -- 87
2019-01-24 03:00:00 5.8 22 Noroeste 43 Noroeste 0.2 -- -- 88
2019-01-24 02:00:00 6 25 Noroeste 46 Noroeste 0.2 -- -- 88
2019-01-24 01:00:00 6.5 21 Noroeste 45 Noroeste 0.2 -- -- 88
2019-01-24 00:00:00 6.8 28 Noroeste 52 Noroeste 0.2 -- -- 89
2019-01-23 23:00:00 7.6 32 Noroeste 54 Noroeste 0 -- -- 83
2019-01-23 22:00:00 7.6 36 Noroeste 52 Noroeste 0 -- -- 86
2019-01-23 21:00:00 8.3 29 Noroeste 45 Noroeste 0 -- -- 79
2019-01-23 20:00:00 8.7 30 Noroeste 53 Noroeste 0 -- -- 75
2019-01-23 19:00:00 9.4 30 Noroeste 55 Noroeste 0 -- -- 72
2019-01-23 18:00:00 9.5 31 Noroeste 54 Oeste 0 -- -- 71
2019-01-23 17:00:00 9.8 26 Noroeste 59 Noroeste 0 -- -- 70
2019-01-23 16:00:00 10.4 36 Noroeste 54 Noroeste 0 -- -- 67
2019-01-23 15:00:00 9.9 21 Noroeste 50 Noroeste 0 -- -- 72
2019-01-23 14:00:00 10.1 27 Noroeste 55 Noroeste 0 -- -- 72
2019-01-23 13:00:00 10.3 29 Noroeste 51 Noroeste 0 -- -- 78
2019-01-23 12:00:00 10.1 34 Noroeste 59 Noroeste 0 -- -- 74
2019-01-23 11:00:00 10.3 35 Noroeste 68 Noroeste 0 -- -- 74
2019-01-23 10:00:00 9.8 40 Noroeste 65 Noroeste 0 -- -- 75
2019-01-23 09:00:00 9.7 44 Noroeste 69 Noroeste 0.2 -- -- 73
2019-01-23 08:00:00 6.1 18 Noroeste 30 Noroeste 0 -- -- 95
2019-01-23 07:00:00 4.5 5 Sudoeste 8 Noroeste 0 -- -- 94
2019-01-23 06:00:00 4.6 2 Este 8 Norte 0 -- -- 92
2019-01-23 05:00:00 5.1 5 Norte 12 Norte 0 -- -- 90
2019-01-23 04:00:00 5.4 8 Norte 16 Noroeste 0 -- -- 87
2019-01-23 03:00:00 6.3 11 Noroeste 30 Noroeste 0 -- -- 82
2019-01-23 02:00:00 6.9 21 Noroeste 33 Noroeste 0 -- -- 77
2019-01-23 01:00:00 4.7 10 Noroeste 17 Noroeste 0 -- -- 92
2019-01-23 00:00:00 4.1 3 Sur 8 Norte 0 -- -- 91
2019-01-22 23:00:00 4.8 4 Norte 20 Noroeste 0 -- -- 91
2019-01-22 22:00:00 5.2 12 Noroeste 25 Noroeste 0 -- -- 88
2019-01-22 21:00:00 5.9 12 Noroeste 18 Noroeste 0 -- -- 79
2019-01-22 20:00:00 5.7 8 Noroeste 27 Noroeste 0 -- -- 80
2019-01-22 19:00:00 5.8 16 Noroeste 33 Noroeste 0 -- -- 81
2019-01-22 18:00:00 6.3 23 Noroeste 39 Noroeste 0 -- -- 78
2019-01-22 17:00:00 7.1 27 Noroeste 55 Noroeste 0 -- -- 74
2019-01-22 16:00:00 7.8 29 Noroeste 46 Noroeste 0 -- -- 71
2019-01-22 15:00:00 7.8 15 Noroeste 32 Noroeste 0 -- -- 74
2019-01-22 14:00:00 7 15 Noroeste 26 Noroeste 0 -- -- 79
2019-01-22 13:00:00 7.3 6 Noroeste 12 Noroeste 0 -- -- 69
2019-01-22 12:00:00 6.1 2 Norte 8 Norte 0 -- -- 72
2019-01-22 11:00:00 5 2 Noroeste 12 Noroeste 0 -- -- 81
2019-01-22 10:00:00 3.6 6 Noroeste 14 Noroeste 0 -- -- 88
2019-01-22 09:00:00 2.3 3 Sudoeste 13 Noroeste 0 -- -- 89
2019-01-22 08:00:00 1.7 7 Noroeste 16 Noroeste 0 -- -- 91
2019-01-22 07:00:00 1.1 10 Noroeste 15 Noroeste 0 -- -- 92
2019-01-22 06:00:00 1.5 9 Noroeste 20 Noroeste 0 -- -- 90
2019-01-22 05:00:00 2.5 13 Noroeste 18 Noroeste 0 -- -- 87
2019-01-22 04:00:00 2.4 9 Norte 17 Norte 0 -- -- 88
2019-01-22 03:00:00 2 8 Norte 13 Noroeste 0 -- -- 90
2019-01-22 02:00:00 1.8 9 Norte 22 Noroeste 0 -- -- 87
2019-01-22 01:00:00 2.9 14 Noroeste 23 Noroeste 0 -- -- 84
2019-01-22 00:00:00 3.3 12 Noroeste 20 Noroeste 0 -- -- 79
2019-01-21 23:00:00 4.5 14 Noroeste 32 Noroeste 0 -- -- 74
2019-01-21 22:00:00 5.2 21 Noroeste 32 Noroeste 0 -- -- 71
2019-01-21 21:00:00 5.5 17 Norte 30 Noroeste 0 -- -- 70
2019-01-21 20:00:00 6 14 Noroeste 31 Noroeste 0 -- -- 70
2019-01-21 19:00:00 5.9 13 Noroeste 23 Norte 0 -- -- 71
2019-01-21 18:00:00 6.3 11 Noroeste 28 Norte 0 -- -- 65
2019-01-21 17:00:00 7.6 10 Noroeste 35 Norte 0 -- -- 64
2019-01-21 16:00:00 8.4 21 Noroeste 42 Noroeste 0 -- -- 62
2019-01-21 15:00:00 9.7 27 Noroeste 42 Noroeste 0 -- -- 60
2019-01-21 14:00:00 8.7 27 Noroeste 44 Noroeste 0 -- -- 60
2019-01-21 13:00:00 8.1 26 Noroeste 49 Noroeste 0 -- -- 68
2019-01-21 12:00:00 8.5 29 Noroeste 49 Noroeste 0 -- -- 64
2019-01-21 11:00:00 7.2 26 Noroeste 43 Noroeste 0 -- -- 72
2019-01-21 10:00:00 6.4 14 Noroeste 25 Noroeste 0 -- -- 82
2019-01-21 09:00:00 5.3 10 Noroeste 22 Noroeste 0 -- -- 89
2019-01-21 08:00:00 5 14 Noroeste 31 Noroeste 0 -- -- 88
2019-01-21 07:00:00 5.1 13 Noroeste 21 Noroeste 0 -- -- 89
2019-01-21 06:00:00 4.8 13 Noroeste 21 Norte 0 -- -- 90
2019-01-21 05:00:00 4.8 7 Noroeste 16 Noroeste 0 -- -- 89
2019-01-21 04:00:00 4.8 12 Noroeste 28 Noroeste 0 -- -- 87
2019-01-21 03:00:00 5.1 10 Norte 22 Noroeste 0 -- -- 89
2019-01-21 02:00:00 5.8 17 Noroeste 28 Noroeste 0 -- -- 83
2019-01-21 01:00:00 5.2 13 Noroeste 23 Noroeste 0 -- -- 86
2019-01-21 00:00:00 5.5 15 Noroeste 26 Noroeste 0 -- -- 85
2019-01-20 23:00:00 5.6 15 Noroeste 28 Noroeste 0 -- -- 84
2019-01-20 22:00:00 5.9 14 Noroeste 27 Noroeste 0 -- -- 83
2019-01-20 21:00:00 6.6 9 Noroeste 26 Noroeste 0 -- -- 80
2019-01-20 20:00:00 6.9 12 Noroeste 27 Oeste 0 -- -- 82
2019-01-20 19:00:00 7.1 17 Noroeste 31 Noroeste 0 -- -- 81
2019-01-20 18:00:00 7.6 18 Noroeste 34 Noroeste 0 -- -- 79
2019-01-20 17:00:00 8.2 22 Noroeste 35 Noroeste 0 -- -- 81
2019-01-20 16:00:00 7.8 16 Noroeste 43 Noroeste 0 -- -- 90
2019-01-20 15:00:00 9.1 17 Noroeste 38 Noroeste 0 -- -- 82
2019-01-20 14:00:00 10 24 Noroeste 36 Noroeste 0 -- -- 74
2019-01-20 13:00:00 9.1 21 Noroeste 34 Noroeste 0.2 -- -- 79
2019-01-20 12:00:00 8.7 26 Noroeste 41 Noroeste 0 -- -- 81
2019-01-20 11:00:00 8 15 Noroeste 26 Noroeste 0 -- -- 97
2019-01-20 10:00:00 5.5 6 Noroeste 12 Noroeste 0 -- -- 100
2019-01-20 09:00:00 4.5 9 Norte 15 Norte 0 -- -- 100
2019-01-20 08:00:00 4.1 8 Norte 14 Norte 0 -- -- 100
2019-01-20 07:00:00 4.3 6 Noroeste 13 Noroeste 0.2 -- -- 100
2019-01-20 06:00:00 4.2 8 Noroeste 13 Noroeste 0 -- -- 100
2019-01-20 05:00:00 4 7 Noroeste 12 Noroeste 0.4 -- -- 100
2019-01-20 04:00:00 3.9 3 Noroeste 4 Noroeste 0.2 -- -- 99
2019-01-20 03:00:00 3.8 3 Nordeste 8 Este 0.2 -- -- 98
2019-01-20 02:00:00 3.9 2 Este 12 Sudeste 0.6 -- -- 98
2019-01-20 01:00:00 4.1 8 Este 17 Este 0.6 -- -- 97
2019-01-20 00:00:00 4.8 7 Este 15 Sudeste 0.8 -- -- 97
2019-01-19 23:00:00 5.4 9 Sudeste 18 Sudeste 1 -- -- 95
2019-01-19 22:00:00 5.8 14 Sudeste 28 Sur 0.6 -- -- 93
2019-01-19 21:00:00 6.3 16 Sur 36 Sur 0.6 -- -- 88
2019-01-19 20:00:00 7.4 28 Sur 39 Sudoeste 0 -- -- 74
2019-01-19 19:00:00 7.1 18 Sur 26 Sur 0.2 -- -- 81
2019-01-19 18:00:00 7.6 13 Sur 25 Sur 0.2 -- -- 80
2019-01-19 17:00:00 9.5 20 Sudeste 28 Sur 0 -- -- 63
2019-01-19 16:00:00 10.6 15 Sur 33 Sudoeste 0 -- -- 56
2019-01-19 15:00:00 11.7 22 Sur 31 Sudoeste 0 -- -- 53
2019-01-19 14:00:00 9.9 20 Sudeste 29 Sudeste 0 -- -- 61
2019-01-19 13:00:00 10.1 18 Sudeste 24 Sudeste 0 -- -- 61
2019-01-19 12:00:00 8.2 9 Este 14 Este 0 -- -- 74
2019-01-19 11:00:00 3.9 6 Nordeste 8 Este 0 -- -- 91
2019-01-19 10:00:00 0.8 3 Nordeste 6 Sudeste 0 -- -- 99
2019-01-19 09:00:00 -2.5 5 Sur 8 Sur 0 -- -- 98
2019-01-19 08:00:00 -3.4 4 Sudoeste 6 Sudoeste 0 -- -- 95
2019-01-19 07:00:00 -2 3 Sur 9 Sudoeste 0 -- -- 97
2019-01-19 06:00:00 -1.4 0 Calma 5 Sudoeste 0 -- -- 95
2019-01-19 05:00:00 0.3 0 Calma 5 Sudoeste 0 -- -- 95
2019-01-19 04:00:00 0.5 4 Sudoeste 6 Sudoeste 0 -- -- 97
2019-01-19 03:00:00 0.2 0 Calma 5 Sur 0 -- -- 97
2019-01-19 02:00:00 -1.1 0 Calma 4 Sur 0 -- -- 96
2019-01-19 01:00:00 -2.2 3 Sudoeste 5 Sur 0 -- -- 93
2019-01-19 00:00:00 -1.1 4 Sur 5 Sur 0 -- -- 92